Time;durP1;ratioP1;P1;durP2;ratioP2;P2;SDS_P1;SDS_P2;PMS_P1;PMS_P2;Temp;Humidity;BMP_temperature;BMP_pressure;BME280_temperature;BME280_humidity;BME280_pressure;Samples;Min_cycle;Max_cycle;Signal;HPM_P1;HPM_P2
2022/12/18 00:00:47;;;;;;;71.18;27.80;;;-3.20;99.90;;;;;;4884346;29;20056;-70
2022/12/18 00:03:16;;;;;;;71.35;27.67;;;-3.00;99.90;;;;;;4901584;29;20498;-70
2022/12/18 00:05:50;;;;;;;68.85;28.02;;;-3.10;99.90;;;;;;4900914;29;20099;-71
2022/12/18 00:08:16;;;;;;;61.85;25.73;;;-3.00;99.90;;;;;;4883119;29;20143;-71
2022/12/18 00:10:42;;;;;;;;;;;-3.10;99.90;;;;;;4901345;29;20056;-71
2022/12/18 00:13:08;;;;;;;64.18;27.10;;;-3.10;99.90;;;;;;4900298;29;19971;-71
2022/12/18 00:15:35;;;;;;;51.95;20.73;;;-3.10;99.90;;;;;;4879547;29;20463;-71
2022/12/18 00:18:00;;;;;;;;;;;-3.10;99.90;;;;;;4880849;29;20055;-71
2022/12/18 00:20:26;;;;;;;68.88;25.77;;;-3.20;99.90;;;;;;4901355;29;19923;-71
2022/12/18 00:22:53;;;;;;;67.05;26.17;;;-3.20;99.90;;;;;;4916834;29;20383;-71
2022/12/18 00:25:18;;;;;;;66.40;27.40;;;-3.20;99.90;;;;;;4900093;29;20048;-70
2022/12/18 00:27:44;;;;;;;69.15;26.80;;;-3.30;99.90;;;;;;4899930;29;20131;-70
2022/12/18 00:30:10;;;;;;;58.60;25.83;;;-3.20;99.90;;;;;;4885138;29;20044;-70
2022/12/18 00:32:37;;;;;;;66.03;24.95;;;-3.20;99.90;;;;;;4899764;29;20044;-70
2022/12/18 00:35:04;;;;;;;58.03;25.00;;;-3.20;99.90;;;;;;4901132;29;20743;-70
2022/12/18 00:37:29;;;;;;;65.07;26.70;;;-3.30;99.90;;;;;;4899001;29;20051;-70
2022/12/18 00:39:55;;;;;;;62.00;24.67;;;-3.30;99.90;;;;;;4884658;29;20040;-70
2022/12/18 00:45:05;;;;;;;62.22;24.42;;;-3.40;99.90;;;;;;4898824;29;20059;-71
2022/12/18 00:47:31;;;;;;;67.25;26.77;;;-3.30;99.90;;;;;;4899890;29;20513;-71
2022/12/18 00:49:57;;;;;;;57.50;23.38;;;-3.40;99.90;;;;;;4901235;29;20044;-71
2022/12/18 00:52:22;;;;;;;60.10;24.35;;;-3.20;99.90;;;;;;4883984;29;20538;-70
2022/12/18 00:54:48;;;;;;;56.95;22.95;;;-3.30;99.90;;;;;;4883782;29;20578;-71
2022/12/18 00:57:13;;;;;;;62.23;24.10;;;-3.40;99.90;;;;;;4899276;29;20040;-71
2022/12/18 00:59:39;;;;;;;55.33;24.10;;;-3.40;99.90;;;;;;4883505;29;20300;-71
2022/12/18 01:02:05;;;;;;;56.50;22.63;;;-3.30;99.90;;;;;;4916737;29;20284;-71
2022/12/18 01:04:34;;;;;;;53.55;22.50;;;-3.40;99.90;;;;;;4900474;29;20284;-71
2022/12/18 01:07:00;;;;;;;52.03;21.65;;;-3.30;99.90;;;;;;4898314;29;20122;-70
2022/12/18 01:09:26;;;;;;;53.60;22.42;;;-3.30;99.90;;;;;;4917062;29;20521;-71
2022/12/18 01:11:51;;;;;;;52.67;22.48;;;-3.40;99.90;;;;;;4897675;29;20048;-71
2022/12/18 01:14:17;;;;;;;46.45;18.48;;;-3.40;99.90;;;;;;4899748;29;20490;-70
2022/12/18 01:16:43;;;;;;;56.60;23.55;;;-3.50;99.90;;;;;;4884542;29;20478;-71
2022/12/18 01:19:09;;;;;;;55.10;23.05;;;-3.50;99.90;;;;;;4898280;29;20092;-71
2022/12/18 01:21:34;;;;;;;55.30;22.50;;;-3.50;99.90;;;;;;4882834;29;20047;-71
2022/12/18 01:24:00;;;;;;;50.20;21.38;;;-3.50;99.90;;;;;;4878379;29;20068;-71
2022/12/18 01:26:29;;;;;;;51.97;22.05;;;-3.60;99.90;;;;;;4884296;29;20881;-71
2022/12/18 01:28:56;;;;;;;54.60;22.42;;;-3.60;99.90;;;;;;4898504;29;20126;-70
2022/12/18 01:31:24;;;;;;;55.05;23.40;;;-3.70;99.90;;;;;;4899391;29;20058;-70
2022/12/18 01:33:52;;;;;;;57.75;23.70;;;-3.70;99.90;;;;;;4896710;29;20048;-70
2022/12/18 01:36:26;;;;;;;59.70;23.77;;;-3.80;99.90;;;;;;4916970;29;20400;-71
2022/12/18 01:38:53;;;;;;;56.63;23.15;;;-3.70;99.90;;;;;;4882649;29;20048;-70
2022/12/18 01:41:21;;;;;;;;;;;-3.70;99.90;;;;;;4900356;29;20048;-71
2022/12/18 01:43:57;;;;;;;55.42;22.08;;;-3.70;99.90;;;;;;4897620;29;20400;-70
2022/12/18 01:46:24;;;;;;;60.58;22.73;;;-3.80;99.90;;;;;;4909936;29;20040;-71
2022/12/18 01:48:53;;;;;;;49.30;21.45;;;-3.90;99.90;;;;;;4897857;29;20048;-73
2022/12/18 01:51:19;;;;;;;55.45;22.30;;;-3.80;99.90;;;;;;4899873;29;20127;-73
2022/12/18 01:53:48;;;;;;;47.45;19.40;;;-4.00;99.90;;;;;;4899507;29;20048;-72
2022/12/18 01:56:16;;;;;;;42.70;17.90;;;-3.90;99.90;;;;;;4900734;29;20036;-72
2022/12/18 01:59:04;;;;;;;44.30;18.50;;;-4.10;99.90;;;;;;4915977;29;20050;-72
2022/12/18 02:01:32;;;;;;;36.35;16.13;;;-4.00;99.90;;;;;;4898692;29;20051;-72
2022/12/18 02:04:21;;;;;;;41.50;17.50;;;-4.20;99.90;;;;;;4897434;29;20043;-72
2022/12/18 02:06:55;;;;;;;41.90;16.88;;;-4.10;99.90;;;;;;4884129;29;20074;-72
2022/12/18 02:09:48;;;;;;;38.00;16.88;;;-4.20;99.90;;;;;;4899524;29;20048;-72
2022/12/18 02:12:19;;;;;;;36.60;16.15;;;-4.30;99.90;;;;;;4894379;29;20056;-72
2022/12/18 02:14:49;;;;;;;38.72;16.63;;;-4.30;99.90;;;;;;4898410;29;20028;-72
2022/12/18 02:17:21;;;;;;;40.35;16.52;;;-4.40;99.90;;;;;;4892643;29;20119;-72
2022/12/18 02:19:55;;;;;;;39.65;16.55;;;-4.30;99.90;;;;;;4885601;29;20111;-72
2022/12/18 02:22:26;;;;;;;41.05;16.92;;;-4.40;99.90;;;;;;4879544;29;20099;-72
2022/12/18 02:25:20;;;;;;;38.38;15.15;;;-4.40;99.90;;;;;;4882928;29;20051;-72
2022/12/18 02:27:47;;;;;;;38.75;15.48;;;-4.50;99.90;;;;;;4896533;29;20056;-72
2022/12/18 02:30:13;;;;;;;36.08;15.77;;;-4.50;99.90;;;;;;4898966;29;20486;-72
2022/12/18 02:32:47;;;;;;;57.83;21.77;;;-4.50;99.90;;;;;;4896109;29;20051;-70
2022/12/18 02:35:24;;;;;;;50.95;20.23;;;-4.50;99.90;;;;;;4896398;29;20597;-69
2022/12/18 02:37:50;;;;;;;;;;;-4.50;99.90;;;;;;4897450;29;20459;-69
2022/12/18 02:40:18;;;;;;;46.80;17.98;;;-4.50;99.90;;;;;;4897913;29;19977;-70
2022/12/18 02:42:44;;;;;;;42.97;17.70;;;-4.60;99.90;;;;;;4895801;29;20055;-69
2022/12/18 02:45:10;;;;;;;40.72;17.55;;;-4.60;99.90;;;;;;4896755;29;20107;-69
2022/12/18 02:47:43;;;;;;;41.80;17.38;;;-4.60;99.90;;;;;;4897273;29;20110;-70
2022/12/18 02:50:30;;;;;;;43.90;18.08;;;-4.60;99.90;;;;;;4895054;29;20048;-71
2022/12/18 02:53:20;;;;;;;35.22;14.60;;;-4.70;99.90;;;;;;4898248;29;20383;-71
2022/12/18 02:56:05;;;;;;;34.03;14.73;;;-4.80;99.90;;;;;;4898412;29;20048;-72
2022/12/18 02:58:43;;;;;;;39.17;16.63;;;-4.80;99.90;;;;;;4882592;29;20040;-72
2022/12/18 03:01:31;;;;;;;44.38;18.00;;;-4.70;99.90;;;;;;4878738;29;20059;-72
2022/12/18 03:04:03;;;;;;;;;;;-4.70;99.90;;;;;;4898471;29;20090;-72
2022/12/18 03:06:53;;;;;;;50.55;19.17;;;-4.70;99.90;;;;;;4881550;29;19934;-72
2022/12/18 03:09:24;;;;;;;42.85;17.63;;;-4.70;99.90;;;;;;4896448;29;20131;-72
2022/12/18 03:14:43;;;;;;;51.58;20.05;;;-4.70;99.90;;;;;;4898755;29;20063;-72
2022/12/18 03:17:16;;;;;;;53.47;22.30;;;-4.60;99.90;;;;;;4884232;29;20048;-72
2022/12/18 03:19:45;;;;;;;53.80;21.98;;;-4.70;99.90;;;;;;4913921;29;20410;-72
2022/12/18 03:22:12;;;;;;;54.05;20.33;;;-4.60;99.90;;;;;;4897248;29;20052;-72
2022/12/18 03:24:39;;;;;;;60.72;22.65;;;-4.60;99.90;;;;;;4915259;29;20410;-72
2022/12/18 03:27:10;;;;;;;58.40;21.13;;;-4.70;99.90;;;;;;4889252;29;20107;-72
2022/12/18 03:29:43;;;;;;;47.13;18.92;;;-4.70;99.90;;;;;;4890620;29;20124;-72
2022/12/18 03:32:21;;;;;;;49.50;19.80;;;-4.70;99.90;;;;;;4902387;29;20120;-72
2022/12/18 03:34:50;;;;;;;54.35;20.98;;;-4.80;99.90;;;;;;4901466;29;20086;-72
2022/12/18 03:37:16;;;;;;;57.53;20.67;;;-4.80;99.90;;;;;;4902207;29;20079;-73
2022/12/18 03:39:42;;;;;;;46.75;19.73;;;-4.70;99.90;;;;;;4901510;29;20083;-73
2022/12/18 03:42:25;;;;;;;55.80;22.08;;;-4.80;99.90;;;;;;4902134;29;20055;-73
2022/12/18 03:45:13;;;;;;;56.13;21.02;;;-4.80;99.90;;;;;;4897445;29;20052;-73
2022/12/18 03:47:42;;;;;;;;;;;-4.80;99.90;;;;;;4900387;29;20056;-72
2022/12/18 03:50:14;;;;;;;45.80;19.02;;;-4.80;99.90;;;;;;4900525;29;20015;-73
2022/12/18 03:52:51;;;;;;;50.92;20.58;;;-4.70;99.90;;;;;;4901354;29;20524;-72
2022/12/18 03:55:19;;;;;;;50.33;20.98;;;-4.80;99.90;;;;;;4901804;29;20044;-72
2022/12/18 03:57:47;;;;;;;44.42;19.33;;;-4.80;99.90;;;;;;4884965;29;20051;-73
2022/12/18 04:00:15;;;;;;;49.83;20.92;;;-4.80;99.90;;;;;;4900747;29;20490;-73
2022/12/18 04:02:51;;;;;;;44.35;19.90;;;-4.80;99.90;;;;;;4893251;29;20044;-72
2022/12/18 04:05:18;;;;;;;45.65;19.40;;;-4.80;99.90;;;;;;4899943;29;20036;-72
2022/12/18 04:07:46;;;;;;;47.50;19.23;;;-4.80;99.90;;;;;;4899814;29;20044;-73
2022/12/18 04:10:13;;;;;;;50.60;21.20;;;-4.80;99.90;;;;;;4899673;29;20490;-71
2022/12/18 04:12:39;;;;;;;52.10;20.85;;;-4.80;99.90;;;;;;4899743;29;20059;-71
2022/12/18 04:15:05;;;;;;;51.22;20.55;;;-4.70;99.90;;;;;;4900537;29;20058;-71
2022/12/18 04:17:31;;;;;;;53.78;21.35;;;-4.80;99.90;;;;;;4900174;29;20418;-72
2022/12/18 04:19:57;;;;;;;48.67;21.23;;;-4.80;99.90;;;;;;4897460;29;20059;-71
2022/12/18 04:22:22;;;;;;;50.58;21.38;;;-4.80;99.90;;;;;;4894768;29;20044;-72
2022/12/18 04:24:48;;;;;;;43.05;18.27;;;-4.80;99.90;;;;;;4887715;29;20100;-71
2022/12/18 04:27:14;;;;;;;53.35;22.00;;;-4.90;99.90;;;;;;4914433;29;20512;-72
2022/12/18 04:29:40;;;;;;;50.10;20.00;;;-4.80;99.90;;;;;;4899707;29;20044;-72
2022/12/18 04:32:05;;;;;;;50.38;19.35;;;-4.90;99.90;;;;;;4898743;29;20434;-72
2022/12/18 04:34:31;;;;;;;44.75;18.52;;;-4.90;99.90;;;;;;4899607;29;20502;-71
2022/12/18 04:36:57;;;;;;;43.72;19.33;;;-4.90;99.90;;;;;;4899532;29;20091;-71
2022/12/18 04:39:22;;;;;;;41.90;16.58;;;-4.90;99.90;;;;;;4884783;29;20501;-71
2022/12/18 04:41:48;;;;;;;36.03;14.68;;;-4.90;99.90;;;;;;4900229;29;20521;-71
2022/12/18 04:44:14;;;;;;;40.35;16.40;;;-4.90;99.90;;;;;;4901463;29;20512;-71
2022/12/18 04:46:39;;;;;;;40.97;16.70;;;-5.00;99.90;;;;;;4899988;29;20169;-71
2022/12/18 04:49:05;;;;;;;39.28;15.95;;;-5.00;99.90;;;;;;4898385;29;20637;-72
2022/12/18 04:51:31;;;;;;;32.95;14.02;;;-5.10;99.90;;;;;;4897785;29;20051;-72
2022/12/18 04:53:56;;;;;;;26.85;11.30;;;-5.10;99.90;;;;;;4899387;29;20055;-72
2022/12/18 04:56:22;;;;;;;36.05;14.45;;;-5.10;99.90;;;;;;4899397;29;20036;-72
2022/12/18 04:58:48;;;;;;;41.15;16.45;;;-5.10;99.90;;;;;;4893655;29;20047;-72
2022/12/18 05:01:16;;;;;;;29.33;11.95;;;-5.10;99.90;;;;;;4898630;29;20048;-72
2022/12/18 05:03:42;;;;;;;43.75;17.33;;;-5.10;99.90;;;;;;4881447;29;20059;-72
2022/12/18 05:06:08;;;;;;;45.28;17.92;;;-5.10;99.90;;;;;;4879015;29;20058;-72
2022/12/18 05:08:34;;;;;;;37.92;16.05;;;-5.10;99.90;;;;;;4915716;29;20052;-72
2022/12/18 05:11:00;;;;;;;40.53;15.35;;;-5.10;99.90;;;;;;4880035;29;20423;-73
2022/12/18 05:13:26;;;;;;;41.10;16.38;;;-5.10;99.90;;;;;;4899317;29;20121;-72
2022/12/18 05:15:52;;;;;;;41.83;17.58;;;-5.20;99.90;;;;;;4898987;29;20044;-72
2022/12/18 05:18:18;;;;;;;42.05;16.20;;;-5.10;99.90;;;;;;4900851;29;20115;-72
2022/12/18 05:20:44;;;;;;;31.60;12.95;;;-5.20;99.90;;;;;;4898808;29;20103;-72
2022/12/18 05:23:09;;;;;;;35.47;15.35;;;-5.20;99.90;;;;;;4896127;29;20472;-72
2022/12/18 05:25:35;;;;;;;32.03;13.55;;;-5.20;99.90;;;;;;4888300;29;20475;-70
2022/12/18 05:28:01;;;;;;;29.23;12.45;;;-5.20;99.90;;;;;;4883159;29;20044;-72
2022/12/18 05:30:27;;;;;;;35.47;15.55;;;-5.30;99.90;;;;;;4911843;29;20538;-71
2022/12/18 05:32:53;;;;;;;39.28;16.00;;;-5.30;99.90;;;;;;4915796;29;20043;-71
2022/12/18 05:35:19;;;;;;;37.42;15.85;;;-5.20;99.90;;;;;;4912028;29;20044;-72
2022/12/18 05:37:45;;;;;;;42.17;16.65;;;-5.30;99.90;;;;;;4900100;29;20128;-72
2022/12/18 05:40:11;;;;;;;37.90;15.73;;;-5.30;99.90;;;;;;4899333;29;20537;-72
2022/12/18 05:42:37;;;;;;;47.13;17.77;;;-5.30;99.90;;;;;;4900098;29;20131;-72
2022/12/18 05:45:04;;;;;;;27.90;12.23;;;-5.20;99.90;;;;;;4916001;29;20589;-72
2022/12/18 05:47:29;;;;;;;;;;;-5.30;99.90;;;;;;4884391;29;20496;-72
2022/12/18 05:49:55;;;;;;;33.70;14.38;;;-5.30;99.90;;;;;;4898550;29;20014;-71
2022/12/18 05:52:21;;;;;;;33.95;14.40;;;-5.30;99.90;;;;;;4898574;29;20119;-71
2022/12/18 05:54:46;;;;;;;45.50;17.73;;;-5.30;99.90;;;;;;4883197;29;20131;-71
2022/12/18 05:57:12;;;;;;;35.90;15.10;;;-5.30;99.90;;;;;;4911374;29;20054;-72
2022/12/18 05:59:41;;;;;;;40.13;16.77;;;-5.30;99.90;;;;;;4916647;29;20503;-72
2022/12/18 06:02:06;;;;;;;40.08;16.45;;;-5.30;99.90;;;;;;4916355;29;20055;-73
2022/12/18 06:04:32;;;;;;;40.13;16.52;;;-5.30;99.90;;;;;;4883219;29;20047;-73
2022/12/18 06:06:58;;;;;;;38.20;16.05;;;-5.30;99.90;;;;;;4893641;29;20055;-73
2022/12/18 06:09:24;;;;;;;46.53;18.52;;;-5.30;99.90;;;;;;4898153;29;20063;-73
2022/12/18 06:11:51;;;;;;;37.47;15.50;;;-5.30;99.90;;;;;;4897416;29;20093;-72
2022/12/18 06:14:17;;;;;;;33.55;14.90;;;-5.30;99.90;;;;;;4883409;29;20074;-72
2022/12/18 06:16:43;;;;;;;34.58;15.13;;;-5.40;99.90;;;;;;4877880;29;20962;-72
2022/12/18 06:19:15;;;;;;;36.45;15.40;;;-5.40;99.90;;;;;;4896930;29;20056;-72
2022/12/18 06:21:41;;;;;;;38.53;16.80;;;-5.40;99.90;;;;;;4912942;29;20389;-72
2022/12/18 06:24:07;;;;;;;34.45;15.35;;;-5.40;99.90;;;;;;4896125;29;20040;-73
2022/12/18 06:26:33;;;;;;;39.08;16.65;;;-5.40;99.90;;;;;;4896085;29;20044;-73
2022/12/18 06:28:59;;;;;;;37.42;16.42;;;-5.40;99.90;;;;;;4891142;29;20115;-73
2022/12/18 06:31:26;;;;;;;36.58;17.75;;;-5.40;99.90;;;;;;4896468;29;20154;-73
2022/12/18 06:33:51;;;;;;;37.45;15.25;;;-5.50;99.90;;;;;;4898561;29;20040;-73
2022/12/18 06:36:17;;;;;;;38.35;16.15;;;-5.50;99.90;;;;;;4876149;29;20517;-73
2022/12/18 06:38:44;;;;;;;37.05;16.95;;;-5.40;99.90;;;;;;4896875;29;20048;-73
2022/12/18 06:41:11;;;;;;;;;;;-5.50;99.90;;;;;;4896546;29;20584;-72
2022/12/18 06:43:36;;;;;;;41.85;17.90;;;-5.50;99.90;;;;;;4895516;29;20276;-71
2022/12/18 06:46:04;;;;;;;41.45;17.70;;;-5.50;99.90;;;;;;4912617;29;20052;-72
2022/12/18 06:48:30;;;;;;;44.67;18.70;;;-5.50;99.90;;;;;;4874947;29;20804;-71
2022/12/18 06:50:55;;;;;;;43.30;18.17;;;-5.50;99.90;;;;;;4891830;29;20119;-72
2022/12/18 06:53:21;;;;;;;41.58;17.95;;;-5.50;99.90;;;;;;4893647;29;20127;-72
2022/12/18 06:55:47;;;;;;;34.90;17.00;;;-5.50;99.90;;;;;;4896760;29;20036;-72
2022/12/18 06:58:13;;;;;;;31.13;15.70;;;-5.50;99.90;;;;;;4891275;29;20048;-72
2022/12/18 07:00:39;;;;;;;30.80;13.90;;;-5.50;99.90;;;;;;4888727;29;20044;-72
2022/12/18 07:03:04;;;;;;;39.58;17.65;;;-5.50;99.90;;;;;;4896989;29;20403;-72
2022/12/18 07:05:30;;;;;;;32.75;15.07;;;-5.50;99.90;;;;;;4894573;29;20512;-71
2022/12/18 07:07:56;;;;;;;39.15;16.30;;;-5.50;99.90;;;;;;4895442;29;20154;-72
2022/12/18 07:10:21;;;;;;;30.25;14.38;;;-5.60;99.90;;;;;;4894505;29;20055;-71
2022/12/18 07:12:47;;;;;;;25.38;11.93;;;-5.50;99.90;;;;;;4893380;29;20056;-72
2022/12/18 07:15:13;;;;;;;34.58;15.02;;;-5.50;99.90;;;;;;4896005;29;20628;-72
2022/12/18 07:17:38;;;;;;;33.92;15.85;;;-5.50;99.90;;;;;;4896954;29;20056;-72
2022/12/18 07:20:04;;;;;;;39.33;16.73;;;-5.50;99.90;;;;;;4896294;29;20060;-72
2022/12/18 07:22:30;;;;;;;34.50;16.90;;;-5.50;99.90;;;;;;4895457;29;20044;-72
2022/12/18 07:24:56;;;;;;;32.80;14.27;;;-5.50;99.90;;;;;;4895591;29;20040;-72
2022/12/18 07:27:22;;;;;;;26.52;12.40;;;-5.50;99.90;;;;;;4898668;29;20048;-72
2022/12/18 07:29:48;;;;;;;25.08;11.93;;;-5.50;99.90;;;;;;4881204;29;20474;-72
2022/12/18 07:32:14;;;;;;;21.65;10.60;;;-5.50;99.90;;;;;;4895398;29;20055;-71
2022/12/18 07:34:40;;;;;;;23.48;12.45;;;-5.50;99.90;;;;;;4894610;29;20055;-71
2022/12/18 07:37:05;;;;;;;26.40;11.85;;;-5.50;99.90;;;;;;4895251;29;20059;-71
2022/12/18 07:39:31;;;;;;;21.05;10.05;;;-5.40;99.90;;;;;;4896663;29;20059;-72
2022/12/18 07:44:41;;;;;;;26.27;13.27;;;-5.40;99.90;;;;;;4892812;29;20047;-72
2022/12/18 07:47:07;;;;;;;24.85;12.02;;;-5.40;99.90;;;;;;4896363;29;20379;-73
2022/12/18 07:49:32;;;;;;;29.67;13.30;;;-5.40;99.90;;;;;;4892749;29;20478;-72
2022/12/18 07:51:58;;;;;;;24.00;12.48;;;-5.30;99.90;;;;;;4894620;29;20596;-70
2022/12/18 07:54:24;;;;;;;27.17;13.10;;;-5.30;99.90;;;;;;4877149;29;20032;-70
2022/12/18 07:56:51;;;;;;;22.00;10.85;;;-5.30;99.90;;;;;;4896829;29;20458;-69
2022/12/18 07:59:17;;;;;;;31.60;14.75;;;-5.30;99.90;;;;;;4894063;29;20048;-70
2022/12/18 08:01:43;;;;;;;24.88;12.30;;;-5.30;99.90;;;;;;4878536;29;20127;-69
2022/12/18 08:04:09;;;;;;;26.40;13.02;;;-5.30;99.90;;;;;;4896998;29;20418;-69
2022/12/18 08:06:34;;;;;;;30.48;13.85;;;-5.20;99.90;;;;;;4896628;29;20044;-69
2022/12/18 08:09:00;;;;;;;25.35;12.73;;;-5.20;99.90;;;;;;4896749;29;20040;-70
2022/12/18 08:11:27;;;;;;;20.38;10.75;;;-5.20;99.90;;;;;;4898443;29;20100;-72
2022/12/18 08:13:54;;;;;;;27.42;13.48;;;-5.10;99.90;;;;;;4898407;29;20090;-71
2022/12/18 08:16:21;;;;;;;29.92;15.50;;;-5.10;99.90;;;;;;4900014;29;20044;-71
2022/12/18 08:18:47;;;;;;;29.50;15.15;;;-5.00;99.90;;;;;;4901062;29;20087;-72
2022/12/18 08:21:26;;;;;;;26.17;14.43;;;-5.00;99.90;;;;;;4901480;29;20079;-71
2022/12/18 08:23:53;;;;;;;25.33;13.75;;;-4.90;99.90;;;;;;4900760;29;20093;-73
2022/12/18 08:26:20;;;;;;;29.08;14.18;;;-4.90;99.90;;;;;;4884269;29;20131;-73
2022/12/18 08:28:45;;;;;;;26.48;14.52;;;-4.80;99.90;;;;;;4899799;29;20048;-73
2022/12/18 08:31:11;;;;;;;28.02;14.38;;;-4.80;99.90;;;;;;4900488;29;20055;-72
2022/12/18 08:33:38;;;;;;;27.58;13.45;;;-4.80;99.90;;;;;;4901821;29;20051;-72
2022/12/18 08:36:05;;;;;;;29.58;14.88;;;-4.80;99.90;;;;;;4901267;29;20050;-73
2022/12/18 08:38:34;;;;;;;;;;;-4.70;99.90;;;;;;4901790;29;20040;-73
2022/12/18 08:41:00;;;;;;;31.08;15.85;;;-4.70;99.90;;;;;;4899123;29;19926;-72
2022/12/18 08:46:11;;;;;;;30.63;16.08;;;-4.60;99.90;;;;;;4889084;29;20051;-73
2022/12/18 08:48:36;;;;;;;31.15;15.95;;;-4.50;99.90;;;;;;4901898;29;20044;-73
2022/12/18 08:51:02;;;;;;;29.35;14.77;;;-4.50;99.90;;;;;;4901818;29;20486;-73
2022/12/18 08:53:28;;;;;;;28.13;15.77;;;-4.50;99.90;;;;;;4886637;29;20592;-72
2022/12/18 08:55:55;;;;;;;24.20;12.48;;;-4.50;99.90;;;;;;4884399;29;20633;-72
2022/12/18 08:58:21;;;;;;;21.65;12.20;;;-4.50;99.90;;;;;;4901532;29;20055;-72
2022/12/18 09:00:47;;;;;;;21.55;11.23;;;-4.40;99.90;;;;;;4896187;29;20051;-72
2022/12/18 09:03:14;;;;;;;21.33;11.63;;;-4.40;99.90;;;;;;4885642;29;20099;-74
2022/12/18 09:05:40;;;;;;;21.88;12.05;;;-4.40;99.90;;;;;;4895431;29;20135;-73
2022/12/18 09:08:06;;;;;;;23.73;11.63;;;-4.30;99.90;;;;;;4900055;29;20044;-72
2022/12/18 09:10:31;;;;;;;20.70;12.18;;;-4.30;99.90;;;;;;4897948;29;20044;-72
2022/12/18 09:12:57;;;;;;;26.48;13.90;;;-4.30;99.90;;;;;;4899956;29;20143;-72
2022/12/18 09:15:23;;;;;;;27.30;14.48;;;-4.30;99.90;;;;;;4884067;29;20486;-72
2022/12/18 09:17:49;;;;;;;27.80;14.48;;;-4.20;99.90;;;;;;4900838;29;20052;-72
2022/12/18 09:20:16;;;;;;;25.83;14.02;;;-4.10;99.90;;;;;;4898468;29;20060;-72
2022/12/18 09:22:41;;;;;;;;;;;-4.10;99.90;;;;;;4901500;29;20490;-72
2022/12/18 09:25:07;;;;;;;30.40;15.70;;;-4.10;99.90;;;;;;4900076;29;19974;-72
2022/12/18 09:27:34;;;;;;;30.05;16.42;;;-4.00;99.90;;;;;;4916019;29;20172;-72
2022/12/18 09:30:00;;;;;;;27.75;14.65;;;-3.90;99.90;;;;;;4898654;29;20039;-73
2022/12/18 09:32:26;;;;;;;27.10;15.52;;;-3.90;99.90;;;;;;4916196;29;20052;-72
2022/12/18 09:34:51;;;;;;;24.88;14.07;;;-3.90;99.90;;;;;;4884665;29;20602;-72
2022/12/18 09:37:17;;;;;;;23.80;14.20;;;-3.80;99.90;;;;;;4917696;29;20080;-69
2022/12/18 09:39:43;;;;;;;26.52;13.90;;;-3.70;99.90;;;;;;4898689;29;20043;-69
2022/12/18 09:42:18;;;;;;;27.67;14.63;;;-3.70;99.90;;;;;;4897263;29;20063;-69
2022/12/18 09:44:49;;;;;;;24.70;13.82;;;-3.60;99.90;;;;;;4898831;29;20576;-69
2022/12/18 09:47:28;;;;;;;26.20;14.73;;;-3.50;99.90;;;;;;4897474;29;20078;-69
2022/12/18 09:49:58;;;;;;;24.90;13.20;;;-3.50;99.90;;;;;;4898649;29;20114;-68
2022/12/18 09:52:35;;;;;;;21.55;11.85;;;-3.40;99.90;;;;;;4913299;29;20402;-68
2022/12/18 09:55:20;;;;;;;22.27;12.45;;;-3.40;99.90;;;;;;4897892;29;20044;-69
2022/12/18 09:57:53;;;;;;;24.10;13.98;;;-3.40;99.90;;;;;;4897539;29;20055;-69
2022/12/18 10:00:25;;;;;;;25.00;14.57;;;-3.30;99.90;;;;;;4881236;29;20048;-69
2022/12/18 10:02:59;;;;;;;25.08;13.68;;;-3.30;99.90;;;;;;4897668;29;20557;-69
2022/12/18 10:05:42;;;;;;;21.80;13.70;;;-3.30;99.90;;;;;;4897867;29;20052;-69
2022/12/18 10:08:16;;;;;;;21.80;12.57;;;-3.40;99.90;;;;;;4895894;29;20055;-69
2022/12/18 10:10:48;;;;;;;21.65;12.55;;;-3.40;99.90;;;;;;4897972;29;20146;-69
2022/12/18 10:13:27;;;;;;;21.13;12.43;;;-3.40;99.90;;;;;;4879688;29;20092;-69
2022/12/18 10:16:11;;;;;;;22.00;12.85;;;-3.40;99.90;;;;;;4880576;29;20067;-69
2022/12/18 10:19:01;;;;;;;22.48;13.07;;;-3.40;99.90;;;;;;4897049;29;20059;-69
2022/12/18 10:21:48;;;;;;;19.85;12.02;;;-3.40;99.90;;;;;;4881374;29;20126;-69
2022/12/18 10:24:37;;;;;;;21.60;12.77;;;-3.30;99.90;;;;;;4897009;29;20048;-70
2022/12/18 10:27:22;;;;;;;21.00;11.18;;;-3.20;99.90;;;;;;4897396;29;20088;-69
2022/12/18 10:29:47;;;;;;;20.08;11.82;;;-3.10;99.90;;;;;;4897061;29;20116;-69
2022/12/18 10:32:19;;;;;;;13.40;8.20;;;-3.00;99.90;;;;;;4912811;29;20092;-68
2022/12/18 10:34:50;;;;;;;19.52;11.02;;;-3.00;99.90;;;;;;4895636;29;20122;-68
2022/12/18 10:37:22;;;;;;;17.92;10.60;;;-3.00;99.90;;;;;;4912991;29;20456;-69
2022/12/18 10:40:13;;;;;;;20.00;11.80;;;-3.00;99.90;;;;;;4897305;29;20390;-69
2022/12/18 10:42:40;;;;;;;21.27;11.98;;;-3.00;99.90;;;;;;4897622;29;20048;-69
2022/12/18 10:45:15;;;;;;;17.33;11.00;;;-2.90;99.90;;;;;;4895643;29;20052;-69
2022/12/18 10:47:48;;;;;;;18.70;10.90;;;-2.90;99.90;;;;;;4897420;29;20055;-69
2022/12/18 10:50:34;;;;;;;18.83;10.90;;;-2.90;99.90;;;;;;4898106;29;20432;-69
2022/12/18 10:53:03;;;;;;;15.80;9.63;;;-2.80;99.90;;;;;;4897093;29;20330;-69
2022/12/18 10:55:39;;;;;;;15.95;10.30;;;-2.80;99.90;;;;;;4895365;29;20048;-69
2022/12/18 10:58:31;;;;;;;16.17;9.80;;;-2.70;99.90;;;;;;4895087;29;20047;-70
2022/12/18 11:01:07;;;;;;;18.85;9.98;;;-2.70;99.90;;;;;;4895130;29;20047;-70
2022/12/18 11:03:40;;;;;;;15.38;10.07;;;-2.60;99.90;;;;;;4890859;29;20778;-70
2022/12/18 11:06:09;;;;;;;19.45;10.75;;;-2.60;99.90;;;;;;4889759;29;20074;-69
2022/12/18 11:08:35;;;;;;;14.95;9.20;;;-2.50;99.90;;;;;;4896741;29;20107;-69
2022/12/18 11:11:01;;;;;;;14.63;8.52;;;-2.50;99.90;;;;;;4895444;29;20075;-70
2022/12/18 11:13:29;;;;;;;14.63;9.23;;;-2.40;99.90;;;;;;4896369;29;20429;-69
2022/12/18 11:15:56;;;;;;;13.13;8.65;;;-2.40;99.90;;;;;;4896659;29;20052;-70
2022/12/18 11:18:31;;;;;;;11.57;8.15;;;-2.40;99.90;;;;;;4914388;29;20127;-69
2022/12/18 11:21:01;;;;;;;13.63;8.48;;;-2.30;99.90;;;;;;4914473;29;20098;-70
2022/12/18 11:23:27;;;;;;;10.93;7.45;;;-2.30;99.90;;;;;;4911735;29;20041;-69
2022/12/18 11:25:58;;;;;;;13.40;7.90;;;-2.20;99.90;;;;;;4895213;29;20055;-70
2022/12/18 11:28:43;;;;;;;12.18;7.78;;;-2.20;99.90;;;;;;4896697;29;20056;-70
2022/12/18 11:31:21;;;;;;;11.88;7.30;;;-2.10;99.90;;;;;;4897480;29;20398;-71
2022/12/18 11:34:00;;;;;;;11.60;7.05;;;-2.10;99.90;;;;;;4887007;29;20048;-70
2022/12/18 11:36:30;;;;;;;11.05;7.22;;;-2.00;99.90;;;;;;4894331;29;20075;-69
2022/12/18 11:38:59;;;;;;;9.25;6.50;;;-2.00;99.90;;;;;;4890345;29;20083;-72
2022/12/18 11:44:37;;;;;;;10.27;6.53;;;-1.80;99.90;;;;;;4882099;29;20068;-71
2022/12/18 11:47:35;;;;;;;9.88;6.80;;;-1.80;99.90;;;;;;4895393;29;20056;-70
2022/12/18 11:50:03;;;;;;;10.93;7.05;;;-1.70;99.90;;;;;;4896311;29;20523;-70
2022/12/18 11:52:38;;;;;;;10.65;7.35;;;-1.70;99.90;;;;;;4899558;29;20075;-68
2022/12/18 11:55:15;;;;;;;9.38;6.15;;;-1.70;99.90;;;;;;4879576;29;20051;-71
2022/12/18 11:57:41;;;;;;;10.88;6.63;;;-1.70;99.90;;;;;;4899994;29;20104;-72
2022/12/18 12:00:15;;;;;;;10.63;6.50;;;-1.70;99.90;;;;;;4896633;29;20142;-72
2022/12/18 12:02:40;;;;;;;13.48;7.05;;;-1.60;99.90;;;;;;4898882;29;21099;-73
2022/12/18 12:05:18;;;;;;;9.47;5.93;;;-1.60;99.90;;;;;;4898193;29;20130;-72
2022/12/18 12:08:09;;;;;;;10.88;6.90;;;-1.50;99.90;;;;;;4884510;29;20044;-73
2022/12/18 12:10:45;;;;;;;9.98;6.70;;;-1.50;99.90;;;;;;4884100;29;20486;-73
2022/12/18 12:13:14;;;;;;;8.30;5.20;;;-1.50;99.90;;;;;;4897510;29;20494;-74
2022/12/18 12:15:55;;;;;;;9.43;5.20;;;-1.50;99.90;;;;;;4897285;29;20405;-73
2022/12/18 12:18:48;;;;;;;11.20;6.32;;;-1.40;99.90;;;;;;4884008;29;20107;-77
2022/12/18 12:21:36;;;;;;;8.38;5.15;;;-1.40;99.90;;;;;;4899619;29;20115;-77
2022/12/18 12:24:31;;;;;;;9.80;6.32;;;-1.40;99.90;;;;;;4901671;29;20071;-77
2022/12/18 12:27:02;;;;;;;8.45;5.60;;;-1.30;99.90;;;;;;4882335;29;20055;-72
2022/12/18 12:29:42;;;;;;;10.45;6.05;;;-1.30;99.90;;;;;;4899290;29;20095;-72
2022/12/18 12:32:29;;;;;;;11.35;6.65;;;-1.30;99.90;;;;;;4897400;29;20052;-72
2022/12/18 12:35:03;;;;;;;8.70;6.00;;;-1.30;99.90;;;;;;4897246;29;20044;-77
2022/12/18 12:37:42;;;;;;;10.50;6.90;;;-1.30;99.90;;;;;;4899122;29;20044;-80
2022/12/18 12:40:13;;;;;;;10.27;5.72;;;-1.20;99.90;;;;;;4899293;29;20048;-77
2022/12/18 12:45:54;;;;;;;8.60;5.93;;;-1.20;99.90;;;;;;4899763;29;20521;-78
2022/12/18 12:48:34;;;;;;;8.68;5.95;;;-1.20;99.90;;;;;;4899775;29;20060;-78
2022/12/18 12:51:30;;;;;;;9.32;5.75;;;-1.20;99.90;;;;;;4899258;29;20048;-79
2022/12/18 12:53:58;;;;;;;8.07;5.65;;;-1.20;99.90;;;;;;4887933;29;20100;-79
2022/12/18 12:56:30;;;;;;;7.68;5.05;;;-1.10;99.90;;;;;;4891586;29;20048;-75
2022/12/18 12:59:11;;;;;;;9.48;5.72;;;-1.10;99.90;;;;;;4890497;29;20056;-75
2022/12/18 13:02:12;;;;;;;8.18;5.25;;;-1.00;99.90;;;;;;4900204;29;20090;-75
2022/12/18 13:04:47;;;;;;;7.93;5.32;;;-1.00;99.90;;;;;;4888710;29;20052;-70